Time;durP1;ratioP1;P1;durP2;ratioP2;P2;SDS_P1;SDS_P2;PMS_P1;PMS_P2;Temp;Humidity;BMP_temperature;BMP_pressure;BME280_temperature;BME280_humidity;BME280_pressure;Samples;Min_cycle;Max_cycle;Signal;HPM_P1;HPM_P2
2021/12/26 00:01:14;;;;;;;22.48;13.70;;;-4.40;99.90;;;;;;5072156;28;20206;-50
2021/12/26 00:03:42;;;;;;;21.77;13.57;;;-4.50;99.90;;;;;;5072074;28;20696;-50
2021/12/26 00:06:12;;;;;;;20.92;13.90;;;-4.50;99.90;;;;;;5054606;28;20222;-50
2021/12/26 00:08:41;;;;;;;23.88;13.70;;;-4.50;99.90;;;;;;5071718;28;20675;-50
2021/12/26 00:11:08;;;;;;;22.95;14.35;;;-4.50;99.90;;;;;;5072373;28;20199;-50
2021/12/26 00:13:35;;;;;;;21.05;13.07;;;-4.50;99.90;;;;;;5072463;28;20195;-50
2021/12/26 00:16:04;;;;;;;23.17;13.35;;;-4.50;99.90;;;;;;5072024;28;20215;-50
2021/12/26 00:18:31;;;;;;;25.88;16.17;;;-4.50;99.90;;;;;;5071559;28;20203;-49
2021/12/26 00:20:59;;;;;;;23.65;14.88;;;-4.50;99.90;;;;;;5072168;28;20203;-50
2021/12/26 00:23:26;;;;;;;26.08;14.88;;;-4.50;99.90;;;;;;5071647;28;20223;-51
2021/12/26 00:25:54;;;;;;;18.10;14.60;;;-4.50;99.90;;;;;;5072171;28;20223;-50
2021/12/26 00:28:21;;;;;;;23.20;14.68;;;-4.50;99.90;;;;;;5071213;28;20202;-51
2021/12/26 00:30:48;;;;;;;26.52;14.68;;;-4.50;99.90;;;;;;5072184;28;20561;-50
2021/12/26 00:33:15;;;;;;;23.80;14.90;;;-4.60;99.90;;;;;;5072102;28;20196;-50
2021/12/26 00:35:42;;;;;;;26.00;14.68;;;-4.50;99.90;;;;;;5072043;28;20207;-51
2021/12/26 00:38:12;;;;;;;26.35;15.15;;;-4.50;99.90;;;;;;5054112;28;20195;-50
2021/12/26 00:40:39;;;;;;;22.48;15.15;;;-4.60;99.90;;;;;;5054255;28;20289;-51
2021/12/26 00:43:09;;;;;;;22.88;14.63;;;-4.60;99.90;;;;;;5054003;28;20222;-50
2021/12/26 00:45:36;;;;;;;22.58;14.43;;;-4.70;99.90;;;;;;5053922;28;20219;-50
2021/12/26 00:48:03;;;;;;;25.00;13.48;;;-4.60;99.90;;;;;;5071768;28;20192;-50
2021/12/26 00:50:34;;;;;;;21.27;15.82;;;-4.60;99.90;;;;;;5055351;28;20199;-50
2021/12/26 00:53:01;;;;;;;22.90;15.13;;;-4.70;99.90;;;;;;5055168;28;20230;-50
2021/12/26 00:55:31;;;;;;;23.15;16.17;;;-4.70;99.90;;;;;;5072543;28;20215;-50
2021/12/26 00:57:59;;;;;;;21.38;15.80;;;-4.70;99.90;;;;;;5054167;28;20203;-49
2021/12/26 01:00:38;;;;;;;22.35;15.93;;;-4.70;99.90;;;;;;5071405;28;20602;-49
2021/12/26 01:03:07;;;;;;;25.83;15.35;;;-4.70;99.90;;;;;;5034191;28;20220;-50
2021/12/26 01:05:37;;;;;;;26.85;16.90;;;-4.70;99.90;;;;;;5052000;28;20746;-49
2021/12/26 01:08:08;;;;;;;23.98;16.35;;;-4.80;99.90;;;;;;5052576;28;20184;-50
2021/12/26 01:10:39;;;;;;;24.25;15.95;;;-4.80;99.90;;;;;;5034821;28;20460;-50
2021/12/26 01:13:15;;;;;;;21.95;16.25;;;-4.80;99.90;;;;;;5034144;28;20204;-50
2021/12/26 01:15:43;;;;;;;23.23;15.60;;;-4.80;99.90;;;;;;5033917;28;20225;-50
2021/12/26 01:18:18;;;;;;;24.75;16.48;;;-4.80;99.90;;;;;;5033692;28;20227;-50
2021/12/26 01:20:51;;;;;;;25.70;16.30;;;-4.80;99.90;;;;;;5051004;28;20231;-50
2021/12/26 01:23:20;;;;;;;26.35;18.65;;;-4.90;99.90;;;;;;5033716;28;20224;-50
2021/12/26 01:25:49;;;;;;;30.08;17.35;;;-4.90;99.90;;;;;;5051534;28;20220;-50
2021/12/26 01:28:17;;;;;;;23.98;15.45;;;-4.90;99.90;;;;;;5033744;28;20668;-50
2021/12/26 01:30:46;;;;;;;22.25;15.43;;;-4.90;99.90;;;;;;5033461;28;20230;-50
2021/12/26 01:33:16;;;;;;;24.52;16.52;;;-4.90;99.90;;;;;;5033355;28;20246;-50
2021/12/26 01:35:59;;;;;;;26.55;16.92;;;-4.90;99.90;;;;;;5051538;28;20212;-50
2021/12/26 01:38:46;;;;;;;22.00;14.07;;;-4.90;99.90;;;;;;5033335;28;20291;-51
2021/12/26 01:41:31;;;;;;;28.77;16.75;;;-4.90;99.90;;;;;;5036527;28;20204;-51
2021/12/26 01:44:04;;;;;;;24.33;16.15;;;-4.90;99.90;;;;;;5054835;28;20223;-50
2021/12/26 01:46:46;;;;;;;28.20;16.25;;;-4.90;99.90;;;;;;5036796;28;20227;-50
2021/12/26 01:49:16;;;;;;;26.38;16.63;;;-5.00;99.90;;;;;;5036445;28;20687;-50
2021/12/26 01:51:47;;;;;;;31.60;17.15;;;-4.90;99.90;;;;;;5039611;28;20195;-50
2021/12/26 01:54:17;;;;;;;25.38;17.13;;;-5.00;99.90;;;;;;5056679;28;20191;-50
2021/12/26 01:56:45;;;;;;;27.65;16.02;;;-5.00;99.90;;;;;;5074285;28;20215;-50
2021/12/26 01:59:13;;;;;;;20.63;15.88;;;-5.00;99.90;;;;;;5056107;28;20203;-49
2021/12/26 02:02:02;;;;;;;25.33;16.17;;;-5.00;99.90;;;;;;5073752;28;20207;-51
2021/12/26 02:04:30;;;;;;;24.92;15.70;;;-5.00;99.90;;;;;;5056419;28;20285;-50
2021/12/26 02:06:58;;;;;;;25.15;16.10;;;-5.00;99.90;;;;;;5056306;28;20219;-50
2021/12/26 02:09:25;;;;;;;25.77;17.85;;;-5.00;99.90;;;;;;5055909;28;20286;-50
2021/12/26 02:11:57;;;;;;;25.98;17.20;;;-5.00;99.90;;;;;;5056275;28;20231;-51
2021/12/26 02:14:24;;;;;;;23.10;14.90;;;-5.00;99.90;;;;;;5057829;28;20196;-50
2021/12/26 02:17:15;;;;;;;21.58;14.50;;;-5.00;99.90;;;;;;5056440;28;20241;-50
2021/12/26 02:19:44;;;;;;;27.80;14.73;;;-5.00;99.90;;;;;;5055611;28;20207;-51
2021/12/26 02:22:14;;;;;;;20.65;15.65;;;-5.00;99.90;;;;;;5055933;28;20222;-50
2021/12/26 02:25:10;;;;;;;21.52;15.20;;;-5.10;99.90;;;;;;5074157;28;20308;-50
2021/12/26 02:27:42;;;;;;;22.35;14.95;;;-5.10;99.90;;;;;;5055828;28;20207;-50
2021/12/26 02:30:12;;;;;;;23.83;15.55;;;-5.10;99.90;;;;;;5073944;28;20560;-51
2021/12/26 02:32:40;;;;;;;21.70;13.93;;;-5.10;99.90;;;;;;5056003;28;20657;-51
2021/12/26 02:35:08;;;;;;;20.02;13.48;;;-5.10;99.90;;;;;;5056328;28;20199;-50
2021/12/26 02:37:35;;;;;;;23.83;15.02;;;-5.10;99.90;;;;;;5055865;28;20632;-49
2021/12/26 02:40:03;;;;;;;24.25;14.50;;;-5.10;99.90;;;;;;5055312;28;20202;-50
2021/12/26 02:42:29;;;;;;;27.98;16.55;;;-5.10;99.90;;;;;;5055241;28;20238;-50
2021/12/26 02:44:56;;;;;;;22.70;14.55;;;-5.10;99.90;;;;;;5055308;28;20254;-49
2021/12/26 02:47:45;;;;;;;17.08;13.20;;;-5.10;99.90;;;;;;5072968;28;20207;-49
2021/12/26 02:50:17;;;;;;;22.08;14.25;;;-5.10;99.90;;;;;;5067437;28;20217;-50
2021/12/26 02:52:44;;;;;;;25.38;15.55;;;-5.10;99.90;;;;;;5072914;28;20207;-50
2021/12/26 02:55:13;;;;;;;23.50;14.77;;;-5.10;99.90;;;;;;5054879;28;20257;-49
2021/12/26 02:57:40;;;;;;;23.13;15.63;;;-5.20;99.90;;;;;;5072622;28;20195;-49
2021/12/26 03:00:10;;;;;;;18.90;13.95;;;-5.10;99.90;;;;;;5054835;28;20302;-50
2021/12/26 03:02:40;;;;;;;20.85;14.80;;;-5.10;99.90;;;;;;5054658;28;20207;-49
2021/12/26 03:05:08;;;;;;;19.20;14.35;;;-5.10;99.90;;;;;;5054539;28;20231;-49
2021/12/26 03:07:36;;;;;;;21.42;13.98;;;-5.20;99.90;;;;;;5054701;28;20207;-50
2021/12/26 03:10:05;;;;;;;18.88;14.13;;;-5.20;99.90;;;;;;5072552;28;20210;-50
2021/12/26 03:12:33;;;;;;;18.30;12.80;;;-5.20;99.90;;;;;;5054365;28;20264;-49
2021/12/26 03:15:00;;;;;;;20.27;13.70;;;-5.20;99.90;;;;;;5054427;28;20726;-49
2021/12/26 03:17:27;;;;;;;20.77;13.27;;;-5.20;99.90;;;;;;5054024;28;20296;-49
2021/12/26 03:19:54;;;;;;;23.13;14.13;;;-5.20;99.90;;;;;;5054030;28;20235;-49
2021/12/26 03:22:24;;;;;;;20.60;12.60;;;-5.30;99.90;;;;;;5054177;28;20348;-49
2021/12/26 03:24:52;;;;;;;22.17;14.15;;;-5.30;99.90;;;;;;5054235;28;20322;-49
2021/12/26 03:27:22;;;;;;;19.48;14.30;;;-5.30;99.90;;;;;;5054254;28;20195;-50
2021/12/26 03:29:48;;;;;;;23.20;16.50;;;-5.30;99.90;;;;;;5053975;28;20218;-49
2021/12/26 03:32:19;;;;;;;22.02;14.98;;;-5.30;99.90;;;;;;5054074;28;20207;-50
2021/12/26 03:34:49;;;;;;;22.92;15.57;;;-5.00;99.90;;;;;;5054869;28;20200;-49
2021/12/26 03:37:18;;;;;;;20.83;14.70;;;-5.30;99.90;;;;;;5054135;28;20417;-49
2021/12/26 03:39:45;;;;;;;23.17;16.40;;;-5.30;99.90;;;;;;5053561;28;20294;-48
2021/12/26 03:42:13;;;;;;;21.38;15.57;;;-5.30;99.90;;;;;;5053877;28;20640;-48
2021/12/26 03:44:44;;;;;;;22.65;15.05;;;-5.30;99.90;;;;;;5053740;28;20276;-49
2021/12/26 03:47:13;;;;;;;23.88;15.63;;;-5.30;99.90;;;;;;5053696;28;20294;-49
2021/12/26 03:49:41;;;;;;;25.02;15.40;;;-5.30;99.90;;;;;;5053325;28;20676;-49
2021/12/26 03:52:08;;;;;;;23.27;14.77;;;-5.40;99.90;;;;;;5053434;28;20203;-49
2021/12/26 03:54:37;;;;;;;24.65;16.80;;;-5.30;99.90;;;;;;5053740;28;20261;-49
2021/12/26 03:57:05;;;;;;;21.13;15.93;;;-5.40;99.90;;;;;;5053498;28;20230;-49
2021/12/26 03:59:33;;;;;;;25.85;15.55;;;-5.40;99.90;;;;;;5053239;28;20683;-49
2021/12/26 04:02:01;;;;;;;22.00;15.60;;;-5.40;99.90;;;;;;5049773;28;20696;-49
2021/12/26 04:04:28;;;;;;;23.65;15.45;;;-5.40;99.90;;;;;;5033451;28;20224;-49
2021/12/26 04:06:55;;;;;;;24.65;16.60;;;-5.40;99.90;;;;;;5051609;28;20589;-49
2021/12/26 04:09:22;;;;;;;23.75;16.15;;;-5.40;99.90;;;;;;5033288;28;20204;-49
2021/12/26 04:11:49;;;;;;;21.98;15.68;;;-5.40;99.90;;;;;;5033509;28;20200;-50
2021/12/26 04:14:18;;;;;;;30.13;16.60;;;-5.50;99.90;;;;;;5033802;28;20287;-49
2021/12/26 04:16:46;;;;;;;20.95;15.45;;;-5.40;99.90;;;;;;5033574;28;20255;-49
2021/12/26 04:19:13;;;;;;;29.17;17.70;;;-5.50;99.90;;;;;;5033012;28;20223;-49
2021/12/26 04:21:40;;;;;;;21.88;16.05;;;-5.40;99.90;;;;;;5033389;28;20207;-49
2021/12/26 04:24:08;;;;;;;23.40;16.50;;;-5.50;99.90;;;;;;5033223;28;20300;-49
2021/12/26 04:26:35;;;;;;;23.30;17.10;;;-5.50;99.90;;;;;;5033146;28;20246;-50
2021/12/26 04:29:02;;;;;;;22.30;16.20;;;-5.50;99.90;;;;;;5050782;28;20203;-50
2021/12/26 04:31:29;;;;;;;20.13;15.35;;;-5.50;99.90;;;;;;5033205;28;20207;-49
2021/12/26 04:33:58;;;;;;;23.48;16.58;;;-5.50;99.90;;;;;;5033187;28;20196;-49
2021/12/26 04:36:25;;;;;;;25.35;16.90;;;-5.50;99.90;;;;;;5033190;28;20288;-49
2021/12/26 04:38:54;;;;;;;19.25;15.85;;;-5.50;99.90;;;;;;5032625;28;20196;-50
2021/12/26 04:41:21;;;;;;;27.15;16.13;;;-5.50;99.90;;;;;;5033413;28;20204;-49
2021/12/26 04:44:16;;;;;;;26.30;16.58;;;-5.50;99.90;;;;;;5050638;28;20227;-49
2021/12/26 04:46:59;;;;;;;19.42;15.15;;;-5.50;99.90;;;;;;5033085;28;20223;-50
2021/12/26 04:49:31;;;;;;;17.20;14.32;;;-5.50;99.90;;;;;;5032629;28;20204;-50
2021/12/26 04:51:58;;;;;;;22.08;16.08;;;-5.70;99.90;;;;;;5035044;28;20681;-49
2021/12/26 04:54:29;;;;;;;22.65;14.85;;;-5.50;99.90;;;;;;5049602;28;20192;-50
2021/12/26 04:56:56;;;;;;;19.88;15.85;;;-5.50;99.90;;;;;;5055467;28;20222;-49
2021/12/26 04:59:23;;;;;;;22.75;16.83;;;-5.50;99.90;;;;;;5053226;28;20199;-49
2021/12/26 05:01:50;;;;;;;24.98;14.93;;;-5.60;99.90;;;;;;5049496;28;20217;-49
2021/12/26 05:04:17;;;;;;;24.33;16.45;;;-5.50;99.90;;;;;;5032947;28;20252;-49
2021/12/26 05:06:45;;;;;;;23.58;15.55;;;-5.50;99.90;;;;;;5033277;28;20250;-49
2021/12/26 05:09:11;;;;;;;23.35;15.68;;;-5.50;99.90;;;;;;5032753;28;20200;-49
2021/12/26 05:11:41;;;;;;;23.05;15.18;;;-5.50;99.90;;;;;;5033128;28;20210;-49
2021/12/26 05:14:08;;;;;;;23.10;15.77;;;-5.50;99.90;;;;;;5052182;28;20188;-49
2021/12/26 05:16:35;;;;;;;23.65;16.67;;;-5.50;99.90;;;;;;5036724;28;20223;-49
2021/12/26 05:19:02;;;;;;;23.58;16.08;;;-5.50;99.90;;;;;;5036537;28;20236;-49
2021/12/26 05:21:29;;;;;;;21.55;15.45;;;-5.50;99.90;;;;;;5036802;28;20269;-50
2021/12/26 05:23:58;;;;;;;22.27;14.82;;;-5.50;99.90;;;;;;5036406;28;20200;-50
2021/12/26 05:26:24;;;;;;;21.40;14.80;;;-5.50;99.90;;;;;;5036820;28;20263;-49
2021/12/26 05:28:52;;;;;;;20.13;14.43;;;-5.50;99.90;;;;;;5035818;28;20208;-49
2021/12/26 05:31:20;;;;;;;17.30;13.18;;;-5.50;99.90;;;;;;5036439;28;20207;-49
2021/12/26 05:33:50;;;;;;;21.77;13.48;;;-5.50;99.90;;;;;;5036447;28;20200;-49
2021/12/26 05:36:17;;;;;;;24.13;14.15;;;-5.50;99.90;;;;;;5036275;28;20228;-49
2021/12/26 05:38:46;;;;;;;24.08;15.02;;;-5.50;99.90;;;;;;5035767;28;20208;-49
2021/12/26 05:41:14;;;;;;;19.98;13.55;;;-5.50;99.90;;;;;;5036150;28;20203;-49
2021/12/26 05:43:52;;;;;;;20.40;12.98;;;-5.50;99.90;;;;;;5036290;28;20200;-49
2021/12/26 05:46:18;;;;;;;22.92;13.00;;;-5.60;99.90;;;;;;5036073;28;20223;-49
2021/12/26 05:48:45;;;;;;;27.10;14.00;;;-5.50;99.90;;;;;;5053651;28;20277;-49
2021/12/26 05:51:26;;;;;;;20.58;11.60;;;-5.60;99.90;;;;;;5036529;28;20868;-50
2021/12/26 05:54:13;;;;;;;21.02;12.32;;;-5.60;99.90;;;;;;5056111;28;20278;-49
2021/12/26 05:56:41;;;;;;;15.15;11.70;;;-5.60;99.90;;;;;;5055555;28;20277;-50
2021/12/26 05:59:08;;;;;;;16.30;11.60;;;-5.60;99.90;;;;;;5055452;28;20223;-50
2021/12/26 06:01:35;;;;;;;20.38;13.50;;;-5.60;99.90;;;;;;5052280;28;20254;-50
2021/12/26 06:04:02;;;;;;;20.63;14.32;;;-5.60;99.90;;;;;;5035722;28;20245;-48
2021/12/26 06:06:29;;;;;;;18.48;11.85;;;-5.60;99.90;;;;;;5035971;28;20220;-49
2021/12/26 06:08:56;;;;;;;19.15;12.43;;;-5.70;99.90;;;;;;5035488;28;20615;-49
2021/12/26 06:11:25;;;;;;;13.75;11.10;;;-5.60;99.90;;;;;;5053465;28;20195;-50
2021/12/26 06:13:53;;;;;;;19.70;11.95;;;-5.60;99.90;;;;;;5035888;28;20291;-50
2021/12/26 06:16:20;;;;;;;14.63;10.50;;;-5.60;99.90;;;;;;5035740;28;20590;-49
2021/12/26 06:18:48;;;;;;;15.57;11.35;;;-5.60;99.90;;;;;;5038585;28;20290;-49
2021/12/26 06:21:33;;;;;;;17.15;11.35;;;-5.60;99.90;;;;;;5054703;28;20207;-49
2021/12/26 06:24:06;;;;;;;18.25;10.30;;;-5.60;99.90;;;;;;5053750;28;20649;-49
2021/12/26 06:26:52;;;;;;;15.63;10.90;;;-5.70;99.90;;;;;;5052886;28;20735;-50
2021/12/26 06:29:43;;;;;;;15.77;11.18;;;-5.70;99.90;;;;;;5053059;28;20218;-49
2021/12/26 06:32:39;;;;;;;16.27;10.52;;;-5.70;99.90;;;;;;5016435;28;20235;-49
2021/12/26 06:35:25;;;;;;;19.40;10.13;;;-5.70;99.90;;;;;;5053723;28;20621;-49
2021/12/26 06:38:10;;;;;;;13.48;10.38;;;-5.70;99.90;;;;;;5053262;28;20258;-49
2021/12/26 06:40:57;;;;;;;14.98;10.90;;;-5.70;99.90;;;;;;5053168;28;20214;-50
2021/12/26 06:43:44;;;;;;;15.13;10.30;;;-5.70;99.90;;;;;;5053558;28;20223;-49
2021/12/26 06:46:30;;;;;;;18.23;11.45;;;-5.70;99.90;;;;;;5052962;28;20234;-49
2021/12/26 06:49:16;;;;;;;14.98;9.95;;;-5.70;99.90;;;;;;5035496;28;20684;-49
2021/12/26 06:51:44;;;;;;;15.10;10.30;;;-5.70;99.90;;;;;;5038111;28;20223;-49
2021/12/26 06:54:13;;;;;;;12.73;9.95;;;-5.70;99.90;;;;;;5055155;28;20294;-49
2021/12/26 06:56:40;;;;;;;24.70;16.67;;;-5.70;99.90;;;;;;5055208;28;20752;-49
2021/12/26 06:59:07;;;;;;;20.65;12.00;;;-5.70;99.90;;;;;;5072946;28;20199;-49
2021/12/26 07:01:35;;;;;;;20.13;11.10;;;-5.70;99.90;;;;;;5051871;28;20204;-49
2021/12/26 07:04:04;;;;;;;13.00;9.98;;;-5.80;99.90;;;;;;5035569;28;20570;-49
2021/12/26 07:06:31;;;;;;;14.98;10.85;;;-5.80;99.90;;;;;;5034665;28;20223;-49
2021/12/26 07:09:05;;;;;;;16.23;11.07;;;-5.80;99.90;;;;;;5034791;28;20200;-49
2021/12/26 07:11:32;;;;;;;15.30;10.88;;;-5.80;99.90;;;;;;5035247;28;20227;-49
2021/12/26 07:13:59;;;;;;;19.27;11.38;;;-5.80;99.90;;;;;;5034994;28;20200;-50
2021/12/26 07:16:26;;;;;;;15.52;9.73;;;-5.80;99.90;;;;;;5035029;28;20250;-49
2021/12/26 07:18:54;;;;;;;17.33;11.43;;;-5.80;99.90;;;;;;5034494;28;20290;-49
2021/12/26 07:21:27;;;;;;;14.27;10.10;;;-5.80;99.90;;;;;;5035194;28;20269;-48
2021/12/26 07:23:59;;;;;;;22.65;11.48;;;-5.80;99.90;;;;;;5034794;28;20200;-50
2021/12/26 07:26:26;;;;;;;15.85;10.23;;;-5.80;99.90;;;;;;5034688;28;20716;-50
2021/12/26 07:28:54;;;;;;;15.38;9.60;;;-5.80;99.90;;;;;;5034325;28;20200;-50
2021/12/26 07:31:22;;;;;;;20.00;10.82;;;-5.80;99.90;;;;;;5052646;28;20228;-50
2021/12/26 07:33:59;;;;;;;14.70;9.40;;;-5.80;99.90;;;;;;5051519;28;20212;-49
2021/12/26 07:36:26;;;;;;;15.48;10.55;;;-5.90;99.90;;;;;;5034241;28;20216;-49
2021/12/26 07:39:22;;;;;;;16.85;10.43;;;-5.80;99.90;;;;;;5046128;28;20216;-49
2021/12/26 07:41:49;;;;;;;15.05;9.35;;;-5.90;99.90;;;;;;5036204;28;20388;-50
2021/12/26 07:44:48;;;;;;;17.45;8.98;;;-5.80;99.90;;;;;;5029156;28;20216;-49
2021/12/26 07:47:45;;;;;;;15.55;9.27;;;-5.80;99.90;;;;;;5033794;28;20207;-49
2021/12/26 07:50:13;;;;;;;11.93;8.88;;;-5.80;99.90;;;;;;5034479;28;20683;-49
2021/12/26 07:53:07;;;;;;;17.17;9.68;;;-5.80;99.90;;;;;;5043293;28;20271;-50
2021/12/26 07:55:52;;;;;;;19.42;9.52;;;-5.80;99.90;;;;;;5072352;28;20575;-49
2021/12/26 07:58:38;;;;;;;25.05;9.63;;;-5.70;99.90;;;;;;5071781;28;20292;-49
2021/12/26 08:01:24;;;;;;;18.67;10.27;;;-5.70;99.90;;;;;;5072193;28;20636;-50
2021/12/26 08:04:05;;;;;;;17.73;9.32;;;-5.70;99.90;;;;;;5054070;28;20592;-49
2021/12/26 08:06:52;;;;;;;13.30;9.50;;;-5.70;99.90;;;;;;5071796;28;20730;-49
2021/12/26 08:09:20;;;;;;;13.35;9.60;;;-5.60;99.90;;;;;;5071535;28;20675;-49
2021/12/26 08:11:47;;;;;;;14.35;9.50;;;-5.60;99.90;;;;;;5054354;28;20246;-49
2021/12/26 08:14:14;;;;;;;19.85;9.50;;;-5.50;99.90;;;;;;5054399;28;20227;-49
2021/12/26 08:16:41;;;;;;;12.35;9.52;;;-5.50;99.90;;;;;;5054763;28;20215;-49
2021/12/26 08:19:08;;;;;;;15.40;9.20;;;-5.40;99.90;;;;;;5053784;28;20222;-49
2021/12/26 08:21:36;;;;;;;15.55;9.95;;;-5.40;99.90;;;;;;5072643;28;20286;-49
2021/12/26 08:24:05;;;;;;;14.45;9.23;;;-5.30;99.90;;;;;;5054398;28;20303;-49
2021/12/26 08:26:33;;;;;;;17.17;11.05;;;-5.30;99.90;;;;;;5072275;28;20280;-49
2021/12/26 08:29:00;;;;;;;20.52;9.85;;;-5.30;99.90;;;;;;5071625;28;20206;-49
2021/12/26 08:31:28;;;;;;;17.80;10.75;;;-5.20;99.90;;;;;;5071764;28;20278;-49
2021/12/26 08:33:55;;;;;;;18.42;10.48;;;-5.30;99.90;;;;;;5071698;28;20191;-49
2021/12/26 08:36:22;;;;;;;13.20;9.20;;;-5.20;99.90;;;;;;5053916;28;20258;-50
2021/12/26 08:38:49;;;;;;;14.73;9.55;;;-5.20;99.90;;;;;;5071085;28;20676;-49
2021/12/26 08:41:17;;;;;;;14.52;10.00;;;-5.20;99.90;;;;;;5071829;28;20198;-50
2021/12/26 08:43:44;;;;;;;15.18;9.80;;;-5.10;99.90;;;;;;5053771;28;20648;-50
2021/12/26 08:46:11;;;;;;;13.75;9.85;;;-4.90;99.90;;;;;;5053414;28;20301;-50
2021/12/26 08:48:41;;;;;;;15.30;10.30;;;-5.00;99.90;;;;;;5053973;28;20199;-49
2021/12/26 08:51:10;;;;;;;17.17;10.27;;;-5.00;99.90;;;;;;5075917;28;20282;-50
2021/12/26 08:53:38;;;;;;;17.92;10.00;;;-5.00;99.90;;;;;;5057619;28;20213;-50
2021/12/26 08:56:05;;;;;;;18.45;10.68;;;-4.90;99.90;;;;;;5075245;28;20260;-50
2021/12/26 08:58:33;;;;;;;17.42;10.65;;;-4.90;99.90;;;;;;5075026;28;20219;-50
2021/12/26 09:01:00;;;;;;;25.00;12.27;;;-4.70;99.90;;;;;;5058013;28;20198;-49
2021/12/26 09:03:28;;;;;;;18.20;11.88;;;-4.80;99.90;;;;;;5057910;28;20281;-48
2021/12/26 09:05:55;;;;;;;20.00;11.48;;;-4.70;99.90;;;;;;5075694;28;20257;-50
2021/12/26 09:08:22;;;;;;;18.33;10.55;;;-4.70;99.90;;;;;;5057079;28;20207;-49
2021/12/26 09:10:49;;;;;;;18.88;11.60;;;-4.60;99.90;;;;;;5075240;28;20237;-50
2021/12/26 09:13:18;;;;;;;17.52;11.88;;;-4.60;99.90;;;;;;5057078;28;20196;-50
2021/12/26 09:15:46;;;;;;;18.10;10.55;;;-4.50;99.90;;;;;;5075388;28;20250;-49
2021/12/26 09:18:12;;;;;;;17.55;11.80;;;-4.50;99.90;;;;;;5074654;28;20199;-49
2021/12/26 09:20:39;;;;;;;19.80;11.35;;;-4.40;99.90;;;;;;5057405;28;20211;-50
2021/12/26 09:23:06;;;;;;;20.50;12.35;;;-4.20;99.90;;;;;;5057151;28;20672;-49
2021/12/26 09:25:33;;;;;;;20.25;12.27;;;-4.30;99.90;;;;;;5074760;28;20219;-50
2021/12/26 09:27:59;;;;;;;22.45;14.30;;;-4.30;99.90;;;;;;5057006;28;20238;-50
2021/12/26 09:30:26;;;;;;;21.58;13.57;;;-4.30;99.90;;;;;;5074826;28;20222;-50
2021/12/26 09:32:54;;;;;;;24.02;14.82;;;-4.30;99.90;;;;;;5075261;28;20192;-50
2021/12/26 09:35:21;;;;;;;25.38;14.80;;;-4.20;99.90;;;;;;5056411;28;20223;-50
2021/12/26 09:37:48;;;;;;;28.15;15.57;;;-4.20;99.90;;;;;;5074899;28;20258;-49
2021/12/26 09:40:17;;;;;;;26.08;15.55;;;-4.20;99.90;;;;;;5056847;28;20207;-50
2021/12/26 09:42:45;;;;;;;26.48;15.73;;;-4.10;99.90;;;;;;5074788;28;20664;-49
2021/12/26 09:45:13;;;;;;;22.83;15.63;;;-4.10;99.90;;;;;;5056401;28;20230;-50
2021/12/26 09:47:40;;;;;;;22.00;15.65;;;-4.10;99.90;;;;;;5074604;28;20191;-50
2021/12/26 09:50:12;;;;;;;35.28;18.00;;;-4.00;99.90;;;;;;5056530;28;20203;-51
2021/12/26 09:52:42;;;;;;;27.75;17.08;;;-4.00;99.90;;;;;;5056863;28;20234;-49
2021/12/26 09:55:11;;;;;;;25.73;16.55;;;-4.00;99.90;;;;;;5056185;28;20292;-50
2021/12/26 09:57:39;;;;;;;31.95;16.55;;;-4.00;99.90;;;;;;5056513;28;20203;-49
2021/12/26 10:00:19;;;;;;;26.08;18.00;;;-3.90;99.90;;;;;;5055833;28;20349;-49
2021/12/26 10:02:46;;;;;;;21.73;14.68;;;-3.90;99.90;;;;;;5074811;28;20290;-50
2021/12/26 10:05:14;;;;;;;25.70;15.63;;;-3.90;99.90;;;;;;5074590;28;20290;-50
2021/12/26 10:07:41;;;;;;;20.98;13.95;;;-3.80;99.90;;;;;;5074213;28;20628;-50
2021/12/26 10:10:09;;;;;;;20.65;12.95;;;-3.80;99.90;;;;;;5056232;28;20204;-49
2021/12/26 10:12:39;;;;;;;21.40;12.82;;;-3.80;99.90;;;;;;5074279;28;20653;-49
2021/12/26 10:15:07;;;;;;;23.23;13.30;;;-3.70;99.90;;;;;;5056142;28;20294;-51
2021/12/26 10:17:33;;;;;;;21.23;11.77;;;-3.70;99.90;;;;;;5074179;28;20615;-50
2021/12/26 10:20:05;;;;;;;16.27;12.13;;;-3.70;99.90;;;;;;5074035;28;20206;-50
2021/12/26 10:22:33;;;;;;;16.60;12.40;;;-3.70;99.90;;;;;;5074012;28;20251;-50
2021/12/26 10:25:00;;;;;;;14.15;9.93;;;-3.60;99.90;;;;;;5056114;28;20219;-49
2021/12/26 10:27:31;;;;;;;16.27;11.77;;;-3.60;99.90;;;;;;5056037;28;20308;-50
2021/12/26 10:29:59;;;;;;;14.13;10.70;;;-3.60;99.90;;;;;;5055876;28;20636;-50
2021/12/26 10:32:31;;;;;;;18.23;10.85;;;-3.50;99.90;;;;;;5056015;28;20582;-49
2021/12/26 10:35:00;;;;;;;21.15;11.02;;;-3.50;99.90;;;;;;5073617;28;20731;-50
2021/12/26 10:37:36;;;;;;;19.70;11.88;;;-3.50;99.90;;;;;;5056131;28;20277;-49
2021/12/26 10:40:10;;;;;;;18.60;9.77;;;-3.50;99.90;;;;;;5055458;28;20222;-49
2021/12/26 10:42:39;;;;;;;13.48;10.13;;;-3.40;99.90;;;;;;5056106;28;20203;-49
2021/12/26 10:45:07;;;;;;;19.85;12.20;;;-3.40;99.90;;;;;;5073461;28;20226;-50
2021/12/26 10:47:37;;;;;;;12.18;8.50;;;-3.40;99.90;;;;;;5073418;28;20203;-49
2021/12/26 10:50:07;;;;;;;12.60;10.25;;;-3.30;99.90;;;;;;5073581;28;20613;-49
2021/12/26 10:52:37;;;;;;;20.55;10.63;;;-3.30;99.90;;;;;;5073722;28;20203;-50
2021/12/26 10:55:07;;;;;;;21.40;9.88;;;-3.30;99.90;;;;;;5073394;28;20191;-50
2021/12/26 10:57:36;;;;;;;14.95;10.45;;;-3.20;99.90;;;;;;5055352;28;20222;-50
2021/12/26 11:00:15;;;;;;;14.02;11.68;;;-3.20;99.90;;;;;;5073481;28;20265;-50
2021/12/26 11:02:43;;;;;;;15.88;9.80;;;-3.20;99.90;;;;;;5073411;28;20203;-50
2021/12/26 11:05:13;;;;;;;17.40;9.55;;;-3.10;99.90;;;;;;5073169;28;20314;-49
2021/12/26 11:07:46;;;;;;;9.82;7.60;;;-3.10;99.90;;;;;;5072884;28;20219;-49
2021/12/26 11:10:18;;;;;;;15.30;8.30;;;-3.10;99.90;;;;;;5073020;28;20192;-49
2021/12/26 11:12:51;;;;;;;12.55;8.20;;;-3.10;99.90;;;;;;5055367;28;20215;-50
2021/12/26 11:15:21;;;;;;;11.93;7.85;;;-3.00;99.90;;;;;;5073028;28;20215;-49
2021/12/26 11:17:51;;;;;;;11.75;7.50;;;-3.00;99.90;;;;;;5072955;28;20523;-50
2021/12/26 11:20:22;;;;;;;11.82;7.57;;;-3.00;99.90;;;;;;5072909;28;20191;-50
2021/12/26 11:22:50;;;;;;;11.70;7.97;;;-2.90;99.90;;;;;;5072721;28;20366;-49
2021/12/26 11:25:17;;;;;;;10.68;7.10;;;-2.90;99.20;;;;;;5055423;28;20226;-49
2021/12/26 11:27:44;;;;;;;11.50;7.55;;;-2.90;98.90;;;;;;5071382;28;20219;-49
2021/12/26 11:30:11;;;;;;;9.18;6.72;;;-2.80;99.00;;;;;;5054038;28;20256;-49
2021/12/26 11:32:40;;;;;;;11.30;7.40;;;-2.80;98.60;;;;;;5054250;28;20380;-49
2021/12/26 11:35:08;;;;;;;8.20;5.97;;;-2.80;98.10;;;;;;5071866;28;20744;-49
2021/12/26 11:37:36;;;;;;;6.88;5.60;;;-2.70;98.00;;;;;;5053678;28;20570;-50
2021/12/26 11:40:23;;;;;;;7.05;5.40;;;-2.70;98.10;;;;;;5072263;28;20202;-49
2021/12/26 11:43:53;;;;;;;8.25;5.47;;;-2.60;97.30;;;;;;5072229;28;20217;-49
2021/12/26 11:46:54;;;;;;;8.88;6.82;;;-2.60;97.10;;;;;;4992371;28;20288;-49
2021/12/26 11:50:23;;;;;;;11.65;6.75;;;-2.60;97.00;;;;;;4988612;28;20206;-50
2021/12/26 11:53:27;;;;;;;10.40;6.18;;;-2.50;97.70;;;;;;4989978;28;20212;-50
2021/12/26 11:56:32;;;;;;;6.85;4.70;;;-2.50;96.40;;;;;;4986045;28;20233;-50
2021/12/26 11:59:18;;;;;;;7.55;5.18;;;-2.50;95.70;;;;;;4973332;28;20619;-50
2021/12/26 12:01:49;;;;;;;9.98;6.00;;;-2.40;95.60;;;;;;4974209;28;20233;-50
2021/12/26 12:04:18;;;;;;;7.10;5.45;;;-2.40;96.40;;;;;;4990136;28;20289;-49
2021/12/26 12:06:48;;;;;;;10.02;5.32;;;-2.40;96.10;;;;;;4989828;28;20794;-51
2021/12/26 12:09:30;;;;;;;13.88;5.25;;;-2.30;95.30;;;;;;4973652;28;20237;-49
2021/12/26 12:12:04;;;;;;;9.63;5.70;;;-2.30;95.60;;;;;;4973642;28;20674;-49
2021/12/26 12:14:53;;;;;;;10.45;5.90;;;-2.30;95.00;;;;;;4973879;28;20301;-50
2021/12/26 12:17:26;;;;;;;9.85;5.75;;;-2.20;95.10;;;;;;5020945;28;20203;-50
2021/12/26 12:20:16;;;;;;;7.20;5.10;;;-2.20;95.50;;;;;;5070975;28;20195;-50
2021/12/26 12:23:12;;;;;;;9.77;5.43;;;-2.20;95.50;;;;;;5071170;28;20198;-50
2021/12/26 12:25:40;;;;;;;8.20;5.80;;;-2.20;95.30;;;;;;5071011;28;20280;-50
2021/12/26 12:28:11;;;;;;;8.05;5.07;;;-2.20;95.10;;;;;;5071064;28;20261;-49
2021/12/26 12:30:39;;;;;;;9.20;5.45;;;-2.10;94.60;;;;;;5053424;28;20332;-49
2021/12/26 12:33:17;;;;;;;7.47;4.90;;;-2.10;94.70;;;;;;5053155;28;20203;-50
2021/12/26 12:35:49;;;;;;;7.53;4.95;;;-2.10;94.30;;;;;;5071222;28;20699;-49
2021/12/26 12:38:29;;;;;;;7.10;5.53;;;-2.10;94.60;;;;;;5070956;28;20270;-49
2021/12/26 12:40:57;;;;;;;7.20;4.82;;;-2.00;94.30;;;;;;5071151;28;20294;-50
2021/12/26 12:43:26;;;;;;;6.65;4.25;;;-2.00;93.60;;;;;;5071033;28;20219;-50
2021/12/26 12:46:09;;;;;;;8.43;4.28;;;-2.00;93.20;;;;;;5053101;28;20309;-49
2021/12/26 12:48:44;;;;;;;6.13;4.22;;;-2.00;93.50;;;;;;5070971;28;20233;-49
2021/12/26 12:51:31;;;;;;;7.78;4.57;;;-2.00;93.80;;;;;;5071308;28;20194;-49
2021/12/26 12:54:00;;;;;;;8.30;5.13;;;-2.00;94.20;;;;;;5071239;28;20608;-50